Latest Weather Observations for Redcliffe

IDQ60801

Issued at 2:02 pm EST Wednesday 4 March 2015 (issued every 30 minutes, with the page automatically refreshed every 10 minutes)

About weather observations | Map of weather stations | Latest weather observations for QLD | Other Formats
Station Details ID: 040958 Name: REDCLIFFE Lat: -27.22 Lon: 153.09 Height: 12.6 m
Data from the previous 72 hours. | See also: Recent months at Redcliffe
Date/Time
EST
Temp
°C
App
Temp
°C
Dew
Point
Rel
Hum
%
Delta-T
°C
Wind Press
QNH
hPa
Press
MSL
hPa
Rain
since 9 am
mm
Dir
 
Spd
km/h
Gust
km/h
Spd
kts
Gust
kts
04/02:00pm 28.1 27.3 17.9 54 6.5 ENE 19 20 10 11 1011.8 1011.7 0.0
04/01:30pm 28.5 27.6 17.7 52 6.8 ENE 19 22 10 12 1012.4 1012.3 0.0
04/01:00pm 28.3 27.9 18.1 54 6.5 ENE 17 19 9 10 1012.8 1012.7 0.0
04/12:30pm 28.3 28.3 17.2 51 7.0 E 13 17 7 9 1013.1 1013.0 0.0
04/12:00pm 28.8 29.8 18.6 54 6.6 E 11 13 6 7 1013.6 1013.5 0.0
04/11:30am 29.2 30.3 18.9 53 6.7 E 11 13 6 7 1014.0 1013.9 0.0
04/11:00am 27.2 27.0 15.6 49 7.1 E 11 13 6 7 1014.4 1014.3 0.0
04/10:30am 27.8 29.1 18.5 57 5.9 E 9 13 5 7 1014.5 1014.4 0.0
04/10:00am 27.5 28.6 17.9 55 6.1 SE 9 13 5 7 1014.7 1014.6 0.0
04/09:30am 27.4 28.4 17.8 55 6.1 SE 9 13 5 7 1014.8 1014.7 0.0
04/09:00am 27.7 28.9 19.8 62 5.1 SSE 13 15 7 8 1014.9 1014.8 0.0
04/08:30am 26.1 26.5 19.0 65 4.6 S 15 17 8 9 1014.9 1014.8 0.0
04/08:00am 25.1 25.2 19.2 70 3.8 S 17 19 9 10 1014.6 1014.5 0.0
04/07:30am 24.1 24.9 19.0 73 3.2 SSW 13 15 7 8 1014.1 1014.0 0.0
04/07:00am 22.8 24.5 19.4 81 2.2 SW 9 13 5 7 1013.8 1013.7 0.0
04/06:30am 21.3 22.4 18.9 86 1.5 SW 11 13 6 7 1013.6 1013.5 0.0
04/06:00am 21.1 22.1 18.7 86 1.5 WSW 11 15 6 8 1013.4 1013.3 0.0
04/05:30am 21.3 22.0 18.9 86 1.5 SW 13 15 7 8 1013.2 1013.1 0.0
04/05:00am 21.2 21.9 18.0 82 2.0 SW 11 15 6 8 1013.1 1013.0 0.0
04/04:30am 21.4 23.7 17.8 80 2.2 SW 2 7 1 4 1012.9 1012.8 0.0
04/04:00am 21.8 23.2 17.8 78 2.5 W 7 7 4 4 1012.5 1012.4 0.0
04/03:30am 22.0 23.5 18.0 78 2.5 SE 7 11 4 6 1012.8 1012.7 0.0
04/03:00am 22.3 23.4 18.1 77 2.6 SE 9 11 5 6 1013.1 1013.0 0.0
04/02:30am 22.6 23.3 17.9 75 2.9 SE 11 13 6 7 1013.4 1013.3 0.0
04/02:00am 23.2 23.9 17.9 72 3.3 SSE 11 15 6 8 1013.7 1013.6 0.0
04/01:30am 23.6 23.9 17.8 70 3.6 SE 13 15 7 8 1014.2 1014.1 0.0
04/01:00am 24.0 23.6 18.0 69 3.8 SE 17 19 9 10 1014.5 1014.4 0.0
04/12:30am 24.3 23.9 18.0 68 4.0 SE 17 20 9 11 1014.9 1014.8 0.0
04/12:00am 24.5 24.5 18.0 67 4.1 SE 15 19 8 10 1015.3 1015.2 0.0
 
Date/Time
EST
Temp
°C
App
Temp
°C
Dew
Point
Rel
Hum
%
Delta-T
°C
Wind Press
QNH
hPa
Press
MSL
hPa
Rain
since 9 am
mm
Dir
 
Spd
km/h
Gust
km/h
Spd
kts
Gust
kts
03/11:30pm 24.8 24.4 18.0 66 4.3 SE 17 20 9 11 1015.5 1015.4 0.0
03/11:00pm 25.1 24.7 18.1 65 4.4 SE 17 20 9 11 1015.5 1015.4 0.0
03/10:30pm 25.2 25.0 18.4 66 4.3 ESE 17 20 9 11 1015.4 1015.3 0.0
03/10:00pm 25.2 25.0 18.4 66 4.3 E 17 20 9 11 1015.5 1015.4 0.0
03/09:30pm 25.2 25.0 18.4 66 4.3 ESE 17 20 9 11 1015.5 1015.4 0.0
03/09:00pm 25.1 24.8 18.3 66 4.3 E 17 19 9 10 1015.4 1015.3 0.0
03/08:30pm 25.0 24.8 18.4 66 4.2 ESE 17 20 9 11 1015.2 1015.1 0.0
03/08:00pm 24.9 24.4 17.9 65 4.4 ESE 17 24 9 13 1014.9 1014.8 0.0
03/07:30pm 25.1 24.4 18.3 66 4.3 E 19 24 10 13 1014.6 1014.5 0.0
03/07:00pm 25.2 24.6 18.4 66 4.3 E 19 24 10 13 1014.3 1014.2 0.0
03/06:30pm 25.3 24.6 18.2 64 4.5 E 19 24 10 13 1013.9 1013.8 0.0
03/06:00pm 25.6 24.2 18.0 63 4.8 E 22 28 12 15 1013.8 1013.7 0.0
03/05:30pm 26.1 24.8 18.2 61 5.0 E 22 28 12 15 1013.6 1013.5 0.0
03/05:00pm 26.5 25.3 18.4 61 5.2 E 22 28 12 15 1013.4 1013.3 0.0
03/04:30pm 26.8 25.5 18.1 59 5.5 E 22 28 12 15 1013.2 1013.1 0.0
03/04:00pm 26.9 25.1 17.9 57 5.7 E 24 30 13 16 1013.0 1012.9 0.0
03/03:30pm 27.3 25.5 17.8 56 6.0 E 24 30 13 16 1012.9 1012.8 0.0
03/03:00pm 27.6 25.9 18.0 55 6.1 E 24 28 13 15 1013.0 1012.9 0.0
03/02:30pm 27.5 26.6 18.2 57 5.9 E 20 28 11 15 1013.2 1013.1 0.0
03/02:00pm 27.8 26.8 17.9 54 6.3 ESE 20 24 11 13 1013.6 1013.5 0.0
03/01:30pm 27.5 26.3 17.1 53 6.5 E 19 26 10 14 1013.9 1013.8 0.0
03/01:00pm 28.2 27.2 16.5 49 7.3 ESE 17 22 9 12 1014.2 1014.1 0.0
03/12:30pm 27.8 26.7 16.4 50 7.1 ESE 17 22 9 12 1014.6 1014.5 0.0
03/12:00pm 27.7 26.7 17.5 53 6.4 SE 19 24 10 13 1014.9 1014.8 0.0
03/11:30am 27.8 27.0 17.9 54 6.3 SE 19 20 10 11 1015.2 1015.1 0.0
03/11:00am 28.1 27.3 18.5 56 6.1 SSE 20 26 11 14 1015.7 1015.6 0.0
03/10:30am 27.3 26.4 18.3 58 5.7 SSE 20 26 11 14 1015.9 1015.8 0.0
03/10:00am 27.7 27.0 19.5 61 5.3 SSE 22 26 12 14 1016.1 1016.0 0.0
03/09:30am 27.3 26.4 17.8 56 6.0 S 19 26 10 14 1015.9 1015.8 0.0
03/09:00am 26.8 26.5 19.2 63 4.9 S 19 22 10 12 1015.8 1015.7 0.0
03/08:30am 25.9 25.2 18.6 64 4.6 S 20 26 11 14 1015.7 1015.6 0.0
03/08:00am 25.4 24.3 18.6 66 4.3 S 22 28 12 15 1015.4 1015.3 0.0
03/07:30am 24.7 24.0 18.6 69 3.9 SSW 20 28 11 15 1015.1 1015.0 0.0
03/07:00am 23.5 23.3 18.4 73 3.2 SSW 17 24 9 13 1014.9 1014.8 0.0
03/06:30am 22.8 23.9 18.8 78 2.5 SW 11 13 6 7 1014.9 1014.8 0.0
03/06:00am 22.1 23.0 18.3 79 2.4 SW 11 15 6 8 1014.6 1014.5 0.0
03/05:30am 22.2 22.4 18.6 80 2.3 SSW 15 22 8 12 1014.5 1014.4 0.0
03/05:00am 21.9 21.7 18.5 81 2.1 SSW 17 20 9 11 1014.2 1014.1 0.0
03/04:30am 22.2 22.0 18.6 80 2.3 SSW 17 22 9 12 1014.0 1013.9 0.0
03/04:00am 22.7 22.7 18.9 79 2.4 S 17 22 9 12 1013.8 1013.7 0.0
03/03:30am 23.1 21.8 19.1 78 2.5 S 24 32 13 17 1013.8 1013.7 0.0
03/03:00am 23.3 21.7 19.2 78 2.6 S 26 32 14 17 1013.5 1013.4 0.0
03/02:30am 23.4 22.9 19.1 77 2.7 S 20 28 11 15 1013.6 1013.5 0.0
03/02:00am 23.5 22.7 19.2 77 2.7 S 22 28 12 15 1014.0 1013.9 0.0
03/01:30am 23.7 22.2 19.4 77 2.8 S 26 30 14 16 1014.3 1014.2 0.0
03/01:00am 23.7 22.2 19.4 77 2.7 S 26 33 14 18 1014.4 1014.3 0.0
03/12:30am 23.9 21.3 19.6 77 2.8 S 32 37 17 20 1014.8 1014.7 0.0
03/12:00am 23.9 21.7 19.6 77 2.8 S 30 35 16 19 1014.8 1014.7 0.0
 
Date/Time
EST
Temp
°C
App
Temp
°C
Dew
Point
Rel
Hum
%
Delta-T
°C
Wind Press
QNH
hPa
Press
MSL
hPa
Rain
since 9 am
mm
Dir
 
Spd
km/h
Gust
km/h
Spd
kts
Gust
kts
02/11:30pm 24.1 21.8 19.4 75 3.0 S 30 35 16 19 1015.0 1014.9 0.0
02/11:00pm 24.7 21.9 19.5 73 3.3 S 33 39 18 21 1015.2 1015.1 0.0
02/10:30pm 24.9 22.7 19.5 72 3.5 SSE 30 33 16 18 1015.1 1015.0 0.0
02/10:00pm 25.1 22.6 20.1 74 3.2 SSE 33 39 18 21 1015.2 1015.1 0.0
02/09:30pm 25.1 22.7 19.9 73 3.4 SSE 32 39 17 21 1014.9 1014.8 0.0
02/09:00pm 25.3 21.9 19.9 72 3.5 SSE 37 43 20 23 1015.0 1014.9 0.0
02/08:30pm 25.4 22.5 20.0 72 3.5 SSE 35 43 19 23 1014.9 1014.8 0.0
02/08:00pm 25.6 21.9 19.9 70 3.7 SSE 39 46 21 25 1014.3 1014.2 0.0
02/07:30pm 25.8 22.7 19.7 69 3.9 SSE 35 41 19 22 1014.1 1014.0 0.0
02/07:00pm 25.8 21.7 19.2 67 4.2 SE 39 46 21 25 1013.5 1013.4 0.0
02/06:30pm 25.9 21.7 19.8 69 4.0 SE 41 48 22 26 1013.1 1013.0 0.0
02/06:00pm 26.0 23.7 20.6 72 3.5 SE 33 43 18 23 1012.8 1012.7 0.0
02/05:30pm 26.2 21.9 19.6 67 4.3 SE 41 50 22 27 1012.5 1012.4 0.0
02/05:00pm 27.0 22.6 19.4 63 4.9 SE 41 50 22 27 1012.0 1011.9 0.0
02/04:30pm 27.0 22.3 19.4 63 4.9 SE 43 52 23 28 1011.4 1011.3 0.0
02/04:00pm 28.0 23.0 20.0 61 5.2 SE 46 52 25 28 1011.3 1011.2 0.0
02/03:30pm 28.0 23.3 19.5 60 5.5 SE 43 52 23 28 1011.2 1011.1 0.0
02/03:00pm 28.1 23.3 19.6 60 5.5 SE 44 52 24 28 1011.0 1010.9 0.0
02/02:30pm 28.6 24.1 19.0 56 6.2 SE 41 50 22 27 1011.2 1011.1 0.0
02/02:00pm 28.8 25.3 19.7 58 5.9 SE 37 43 20 23 1011.3 1011.2 0.0
02/01:30pm 28.7 25.7 19.9 59 5.8 SE 35 41 19 22 1011.7 1011.6 0.0
02/01:00pm 28.6 25.3 20.1 60 5.6 SE 37 41 20 22 1011.9 1011.8 0.0
02/12:30pm 28.6 25.3 20.1 60 5.6 SE 37 44 20 24 1012.1 1012.0 0.0
02/12:00pm 28.4 24.9 20.4 62 5.3 SE 39 44 21 24 1012.6 1012.5 0.0
02/11:30am 28.0 24.7 20.0 61 5.2 SE 37 43 20 23 1012.7 1012.6 0.0
02/11:00am 28.3 25.8 20.1 61 5.4 SE 33 37 18 20 1013.0 1012.9 0.0
02/10:30am 27.9 26.0 21.0 66 4.6 SE 32 35 17 19 1013.0 1012.9 0.0
02/10:00am 28.2 27.8 21.0 65 4.8 SSE 24 28 13 15 1013.0 1012.9 0.0
02/09:30am 28.3 29.2 20.8 63 5.0 SSE 17 26 9 14 1013.0 1012.9 0.0
02/09:00am 27.6 28.8 19.9 63 5.0 S 13 17 7 9 1012.8 1012.7 0.0
02/08:30am 28.1 28.9 21.4 67 4.5 S 19 24 10 13 1012.6 1012.5 0.0
02/08:00am 26.9 27.6 20.5 68 4.2 S 17 20 9 11 1012.2 1012.1 0.0
02/07:30am 26.0 27.3 20.8 73 3.4 SSW 15 19 8 10 1012.2 1012.1 0.0
02/07:00am 24.9 25.9 21.0 79 2.6 S 17 22 9 12 1012.0 1011.9 0.0
02/06:30am 24.4 24.9 20.9 81 2.3 S 19 26 10 14 1011.9 1011.8 0.0
02/06:00am 23.8 25.5 20.9 84 1.9 SSW 13 19 7 10 1011.5 1011.4 0.0
02/05:30am 23.2 25.1 20.5 85 1.8 SSW 11 13 6 7 1011.2 1011.1 0.0
02/05:00am 23.1 25.4 20.6 86 1.6 SW 9 11 5 6 1010.8 1010.7 0.0
02/04:30am 23.1 25.3 20.4 85 1.8 SW 9 11 5 6 1010.2 1010.1 0.0
02/04:00am 23.3 25.4 20.1 82 2.1 SW 9 11 5 6 1009.9 1009.8 0.0
02/03:30am 23.6 25.9 19.9 80 2.4 WSW 7 7 4 4 1009.8 1009.7 0.0
02/03:00am 23.8 26.2 20.1 80 2.4 W 7 9 4 5 1009.7 1009.6 0.0
02/02:30am 23.8 26.2 20.1 80 2.4 WNW 7 11 4 6 1009.7 1009.6 0.0
02/02:00am 23.9 26.4 20.2 80 2.4 W 7 7 4 4 1009.7 1009.6 0.0
02/01:30am 24.0 26.2 20.3 80 2.4 NW 9 11 5 6 1009.7 1009.6 0.0
02/01:00am 24.5 27.2 20.2 77 2.8 WNW 6 7 3 4 1010.3 1010.2 0.0
02/12:30am 24.3 28.0 20.0 77 2.8 CALM 0 0 0 0 1010.3 1010.2 0.0
02/12:00am 24.4 26.9 19.9 76 2.9 NNW 6 7 3 4 1010.3 1010.2 0.0
 
Date/Time
EST
Temp
°C
App
Temp
°C
Dew
Point
Rel
Hum
%
Delta-T
°C
Wind Press
QNH
hPa
Press
MSL
hPa
Rain
since 9 am
mm
Dir
 
Spd
km/h
Gust
km/h
Spd
kts
Gust
kts
01/11:30pm 24.8 26.9 20.1 75 3.0 N 9 13 5 7 1010.1 1010.0 0.0
01/11:00pm 25.1 27.1 19.9 73 3.4 N 9 13 5 7 1010.0 1009.9 0.0
01/10:30pm 25.5 26.8 20.1 72 3.5 N 13 19 7 10 1010.3 1010.2 0.0
01/10:00pm 25.8 26.0 20.1 71 3.7 N 19 24 10 13 1010.3 1010.2 0.0
01/09:30pm 25.8 26.3 20.1 71 3.7 NNE 17 20 9 11 1010.5 1010.4 0.0
01/09:00pm 25.7 25.7 19.8 70 3.8 NNE 19 22 10 12 1010.2 1010.1 0.0
01/08:30pm 25.7 25.5 19.8 70 3.8 NNE 20 26 11 14 1009.8 1009.7 0.0
01/08:00pm 25.8 25.7 19.9 70 3.8 NNE 20 26 11 14 1009.8 1009.7 0.0
01/07:30pm 25.8 25.2 19.7 69 3.9 NNE 22 28 12 15 1009.5 1009.4 0.0
01/07:00pm 25.7 25.4 19.6 69 3.9 NNE 20 26 11 14 1009.1 1009.0 0.0
01/06:30pm 25.9 24.6 19.8 69 4.0 NNE 26 30 14 16 1008.5 1008.4 0.0
01/06:00pm 26.1 24.6 19.5 67 4.3 NNE 26 30 14 16 1008.4 1008.3 0.0
01/05:30pm 26.6 24.9 19.7 66 4.5 NNE 28 32 15 17 1008.2 1008.1 0.0
01/05:00pm 26.9 25.2 19.8 65 4.6 NNE 28 32 15 17 1008.2 1008.1 0.0
01/04:30pm 27.4 25.9 20.2 65 4.7 NNE 28 30 15 16 1007.8 1007.7 0.0
01/04:00pm 28.1 27.2 20.6 63 5.0 NNE 26 30 14 16 1007.8 1007.7 0.0
01/03:30pm 27.3 26.0 19.9 64 4.8 NNE 26 30 14 16 1007.9 1007.8 0.0
01/03:00pm 28.2 27.6 20.5 63 5.1 NE 24 28 13 15 1008.1 1008.0 0.0
01/02:30pm 28.4 28.3 21.4 66 4.7 NE 24 28 13 15 1008.4 1008.3 0.0

Other Formats:

Comma delimited format used in spreadsheet applications
http://www.bom.gov.au/fwo/IDQ60801/IDQ60801.95591.axf

JavaScript Object Notation format (JSON) in row-major order
http://www.bom.gov.au/fwo/IDQ60801/IDQ60801.95591.json